Time;durP1;ratioP1;P1;durP2;ratioP2;P2;SDS_P1;SDS_P2;PMS_P1;PMS_P2;Temp;Humidity;BMP_temperature;BMP_pressure;BME280_temperature;BME280_humidity;BME280_pressure;Samples;Min_cycle;Max_cycle;Signal;HPM_P1;HPM_P2
2022/09/09 00:02:20;;;;;;;7.60;3.20;;;;;;;15.33;100.00;100509.00;5053012;28;20543;-71
2022/09/09 00:05:01;;;;;;;8.47;3.20;;;;;;;15.28;100.00;100510.00;5053194;28;20431;-71
2022/09/09 00:07:40;;;;;;;7.17;3.33;;;;;;;15.22;100.00;100510.53;5053006;28;20812;-71
2022/09/09 00:10:17;;;;;;;5.60;3.07;;;;;;;15.18;100.00;100509.59;5053194;28;20439;-71
2022/09/09 00:12:55;;;;;;;6.63;3.10;;;;;;;15.12;100.00;100506.28;5052837;28;20458;-69
2022/09/09 00:15:24;;;;;;;6.60;3.60;;;;;;;15.10;100.00;100516.72;5053131;28;20452;-70
2022/09/09 00:17:56;;;;;;;7.13;3.53;;;;;;;15.14;100.00;100506.75;5053045;28;20442;-70
2022/09/09 00:20:30;;;;;;;7.57;3.47;;;;;;;15.08;100.00;100508.06;5053058;28;20855;-70
2022/09/09 00:23:06;;;;;;;10.17;3.43;;;;;;;15.04;100.00;100505.19;5052885;28;20486;-71
2022/09/09 00:25:38;;;;;;;6.40;2.90;;;;;;;15.07;100.00;100511.94;5052745;28;20430;-70
2022/09/09 00:28:15;;;;;;;7.73;3.60;;;;;;;15.06;100.00;100510.34;5053233;28;20830;-70
2022/09/09 00:30:42;;;;;;;7.80;3.40;;;;;;;15.09;100.00;100509.66;5057093;28;20509;-71
2022/09/09 00:33:14;;;;;;;7.37;2.97;;;;;;;15.09;100.00;100506.94;5056633;28;20462;-71
2022/09/09 00:35:45;;;;;;;5.27;2.73;;;;;;;15.06;100.00;100500.22;5056700;28;20930;-70
2022/09/09 00:38:14;;;;;;;7.47;3.60;;;;;;;15.05;100.00;100500.53;5056936;28;20422;-70
2022/09/09 00:40:49;;;;;;;6.77;3.53;;;;;;;14.99;100.00;100502.69;5056882;28;20438;-70
2022/09/09 00:43:26;;;;;;;5.60;2.57;;;;;;;15.00;100.00;100492.56;5056706;28;20897;-70
2022/09/09 00:46:09;;;;;;;5.80;2.43;;;;;;;14.98;100.00;100483.94;5056812;28;20425;-70
2022/09/09 00:48:48;;;;;;;6.80;3.37;;;;;;;14.98;100.00;100490.19;5056469;28;20422;-70
2022/09/09 00:51:24;;;;;;;6.63;3.30;;;;;;;14.92;100.00;100488.78;5056696;28;20507;-70
2022/09/09 00:54:11;;;;;;;6.10;2.87;;;;;;;14.92;100.00;100487.97;5056291;28;20478;-70
2022/09/09 00:56:44;;;;;;;5.87;2.83;;;;;;;14.85;100.00;100486.56;5056626;28;20532;-70
2022/09/09 00:59:21;;;;;;;9.57;3.80;;;;;;;14.93;100.00;100493.09;5056833;28;20460;-70
2022/09/09 01:01:47;;;;;;;6.90;3.07;;;;;;;14.94;100.00;100491.97;5056128;28;20931;-69
2022/09/09 01:04:20;;;;;;;6.90;3.30;;;;;;;14.91;100.00;100491.84;5056311;28;20462;-69
2022/09/09 01:06:58;;;;;;;7.27;3.80;;;;;;;14.88;100.00;100494.09;5056441;28;20484;-69
2022/09/09 01:09:30;;;;;;;6.60;3.53;;;;;;;14.86;100.00;100499.06;5056239;28;20429;-69
2022/09/09 01:12:06;;;;;;;6.37;3.40;;;;;;;14.85;100.00;100505.66;5056037;28;20430;-69
2022/09/09 01:14:42;;;;;;;6.30;2.60;;;;;;;14.83;100.00;100505.22;5055949;28;20425;-69
2022/09/09 01:17:15;;;;;;;7.70;3.00;;;;;;;14.84;100.00;100509.53;5055908;28;20973;-70
2022/09/09 01:19:56;;;;;;;5.77;2.87;;;;;;;14.90;100.00;100510.13;5056145;28;20438;-70
2022/09/09 01:22:33;;;;;;;6.80;3.17;;;;;;;14.87;100.00;100517.06;5055655;28;20486;-70
2022/09/09 01:25:22;;;;;;;5.70;3.30;;;;;;;14.84;100.00;100506.81;5056074;28;20491;-69
2022/09/09 01:27:55;;;;;;;9.10;4.20;;;;;;;14.91;100.00;100505.47;5056022;28;20430;-68
2022/09/09 01:30:22;;;;;;;5.93;2.93;;;;;;;14.91;100.00;100502.75;5056032;28;20853;-68
2022/09/09 01:32:51;;;;;;;6.60;3.10;;;;;;;14.90;100.00;100496.50;5055846;28;20473;-68
2022/09/09 01:35:30;;;;;;;6.43;3.60;;;;;;;14.92;100.00;100504.31;5055823;28;20438;-68
2022/09/09 01:37:56;;;;;;;7.37;3.20;;;;;;;14.94;100.00;100499.34;5056144;28;20430;-68
2022/09/09 01:40:24;;;;;;;6.63;3.47;;;;;;;14.95;100.00;100496.28;5055737;28;20446;-68
2022/09/09 01:42:53;;;;;;;7.27;3.93;;;;;;;14.94;100.00;100500.16;5055592;28;20556;-68
2022/09/09 01:45:19;;;;;;;8.80;3.77;;;;;;;14.95;100.00;100500.94;5055391;28;20447;-68
2022/09/09 01:47:47;;;;;;;9.03;4.37;;;;;;;14.98;100.00;100512.00;5055609;28;20442;-68
2022/09/09 01:50:15;;;;;;;7.77;3.80;;;;;;;14.99;100.00;100508.13;5055567;28;20445;-68
2022/09/09 01:52:44;;;;;;;8.53;3.43;;;;;;;14.96;100.00;100510.72;5055232;28;20466;-68
2022/09/09 01:55:11;;;;;;;6.90;3.67;;;;;;;14.99;100.00;100510.06;5055469;28;20449;-68
2022/09/09 01:57:45;;;;;;;8.13;3.70;;;;;;;14.96;100.00;100506.06;5055429;28;20496;-68
2022/09/09 02:00:15;;;;;;;5.43;2.97;;;;;;;14.95;100.00;100498.22;5055019;28;20927;-68
2022/09/09 02:02:50;;;;;;;6.17;3.23;;;;;;;14.94;100.00;100508.34;5055412;28;20489;-68
2022/09/09 02:05:28;;;;;;;8.07;3.70;;;;;;;14.97;100.00;100506.88;5055329;28;20426;-68
2022/09/09 02:08:01;;;;;;;7.40;3.10;;;;;;;15.00;100.00;100503.47;5055270;28;20445;-68
2022/09/09 02:10:33;;;;;;;6.53;3.30;;;;;;;14.97;100.00;100502.22;5055259;28;20466;-68
2022/09/09 02:13:05;;;;;;;6.10;3.10;;;;;;;14.94;100.00;100508.34;5055107;28;20824;-68
2022/09/09 02:15:39;;;;;;;8.20;3.73;;;;;;;14.92;100.00;100509.78;5054787;28;20841;-68
2022/09/09 02:18:09;;;;;;;8.63;3.77;;;;;;;14.93;100.00;100506.75;5054812;28;20907;-68
2022/09/09 02:20:38;;;;;;;9.17;3.70;;;;;;;14.93;100.00;100500.50;5055324;28;20492;-68
2022/09/09 02:23:08;;;;;;;7.50;3.37;;;;;;;14.95;100.00;100511.84;5054794;28;20498;-68
2022/09/09 02:25:37;;;;;;;5.90;2.90;;;;;;;14.93;100.00;100508.69;5055183;28;20458;-68
2022/09/09 02:28:07;;;;;;;6.87;2.83;;;;;;;14.92;100.00;100504.31;5054959;28;20485;-70
2022/09/09 02:30:36;;;;;;;7.73;3.37;;;;;;;14.92;100.00;100507.88;5055217;28;20442;-70
2022/09/09 02:33:06;;;;;;;6.87;3.10;;;;;;;14.98;100.00;100519.38;5054639;28;20873;-70
2022/09/09 02:35:37;;;;;;;6.03;2.93;;;;;;;14.96;100.00;100508.00;5054746;28;20442;-70
2022/09/09 02:38:07;;;;;;;6.13;3.03;;;;;;;14.91;100.00;100500.00;5054716;28;20443;-70
2022/09/09 02:40:34;;;;;;;9.00;3.80;;;;;;;14.86;100.00;100509.97;5054604;28;20811;-70
2022/09/09 02:43:00;;;;;;;7.70;3.37;;;;;;;14.89;100.00;100506.59;5054133;28;21017;-69
2022/09/09 02:45:46;;;;;;;8.17;3.77;;;;;;;14.91;100.00;100517.16;5054659;28;20492;-69
2022/09/09 02:48:18;;;;;;;6.80;3.47;;;;;;;14.91;100.00;100510.91;5054804;28;20419;-69
2022/09/09 02:50:53;;;;;;;9.67;4.03;;;;;;;14.85;100.00;100521.25;5053892;28;20916;-69
2022/09/09 02:53:25;;;;;;;6.90;3.10;;;;;;;14.86;100.00;100512.72;5054181;28;20473;-70
2022/09/09 02:55:56;;;;;;;7.67;3.57;;;;;;;14.83;100.00;100515.31;5054410;28;20414;-68
2022/09/09 02:58:23;;;;;;;7.90;3.20;;;;;;;14.82;100.00;100519.16;5054344;28;20437;-69
2022/09/09 03:00:52;;;;;;;7.43;3.57;;;;;;;14.81;100.00;100515.63;5054222;28;20525;-69
2022/09/09 03:03:21;;;;;;;7.70;4.17;;;;;;;14.74;100.00;100518.09;5054035;28;20485;-69
2022/09/09 03:05:48;;;;;;;7.00;3.27;;;;;;;14.75;100.00;100521.63;5054199;28;20484;-69
2022/09/09 03:08:15;;;;;;;6.90;3.17;;;;;;;14.64;100.00;100519.25;5053754;28;20438;-69
2022/09/09 03:10:41;;;;;;;7.00;3.30;;;;;;;14.63;100.00;100511.44;5054107;28;20434;-69
2022/09/09 03:13:08;;;;;;;5.83;3.20;;;;;;;14.59;100.00;100524.13;5054220;28;20458;-70
2022/09/09 03:15:35;;;;;;;8.10;3.47;;;;;;;14.60;100.00;100522.97;5053960;28;20457;-69
2022/09/09 03:18:02;;;;;;;6.70;3.10;;;;;;;14.59;100.00;100529.56;5053608;28;20481;-69
2022/09/09 03:20:31;;;;;;;6.80;3.47;;;;;;;14.54;100.00;100544.19;5053870;28;20504;-69
2022/09/09 03:22:59;;;;;;;8.23;3.47;;;;;;;14.55;100.00;100534.06;5053395;28;21017;-70
2022/09/09 03:25:26;;;;;;;8.83;3.37;;;;;;;14.49;100.00;100536.19;5053784;28;20438;-69
2022/09/09 03:27:54;;;;;;;8.03;3.50;;;;;;;14.48;100.00;100539.22;5053458;28;20954;-69
2022/09/09 03:30:21;;;;;;;6.40;3.00;;;;;;;14.48;100.00;100545.50;5053705;28;20504;-69
2022/09/09 03:32:47;;;;;;;7.87;3.97;;;;;;;14.46;100.00;100536.81;5053285;28;20971;-69
2022/09/09 03:35:15;;;;;;;6.83;3.00;;;;;;;14.45;100.00;100532.50;5053612;28;20449;-70
2022/09/09 03:37:42;;;;;;;8.80;3.83;;;;;;;14.38;100.00;100537.66;5053290;28;20438;-69
2022/09/09 03:40:10;;;;;;;5.50;2.97;;;;;;;14.36;100.00;100538.00;5053534;28;20445;-69
2022/09/09 03:42:36;;;;;;;11.73;4.20;;;;;;;14.30;100.00;100541.25;5053303;28;20466;-69
2022/09/09 03:45:03;;;;;;;9.73;3.90;;;;;;;14.28;100.00;100543.47;5053457;28;20461;-69
2022/09/09 03:47:30;;;;;;;7.07;3.17;;;;;;;14.29;100.00;100551.31;5053452;28;20450;-69
2022/09/09 03:49:56;;;;;;;9.43;3.87;;;;;;;14.24;100.00;100554.22;5053324;28;20447;-70
2022/09/09 03:52:24;;;;;;;7.70;3.67;;;;;;;14.23;100.00;100540.94;5052998;28;20536;-69
2022/09/09 03:54:52;;;;;;;6.57;3.00;;;;;;;14.26;100.00;100534.84;5078892;22;20501;-70
2022/09/09 03:57:19;;;;;;;6.57;3.27;;;;;;;14.26;100.00;100535.63;5053300;28;20454;-70
2022/09/09 03:59:45;;;;;;;6.30;2.70;;;;;;;14.25;100.00;100544.91;5053247;28;20500;-71
2022/09/09 04:02:12;;;;;;;6.17;3.43;;;;;;;14.28;100.00;100548.91;5052791;28;20438;-72
2022/09/09 04:04:39;;;;;;;8.10;3.83;;;;;;;14.29;100.00;100550.50;5052319;28;20509;-70
2022/09/09 04:07:06;;;;;;;7.30;3.63;;;;;;;14.31;100.00;100543.63;5053194;28;20823;-70
2022/09/09 04:09:33;;;;;;;8.53;3.47;;;;;;;14.30;100.00;100544.75;5052880;28;20477;-70
2022/09/09 04:12:01;;;;;;;7.30;3.70;;;;;;;14.31;100.00;100537.38;5052768;28;20992;-69
2022/09/09 04:14:28;;;;;;;7.40;3.30;;;;;;;14.31;100.00;100535.44;5053057;28;20457;-70
2022/09/09 04:16:57;;;;;;;7.47;3.50;;;;;;;14.34;100.00;100539.44;5053103;28;20450;-70
2022/09/09 04:19:23;;;;;;;5.90;2.83;;;;;;;14.33;100.00;100538.63;5053007;28;20468;-70
2022/09/09 04:21:51;;;;;;;7.40;3.40;;;;;;;14.34;100.00;100542.16;5053230;28;20438;-70
2022/09/09 04:24:18;;;;;;;7.70;3.53;;;;;;;14.31;100.00;100538.19;5052857;28;20504;-70
2022/09/09 04:26:45;;;;;;;5.20;2.80;;;;;;;14.31;100.00;100542.84;5052699;28;20951;-70
2022/09/09 04:29:13;;;;;;;7.87;3.87;;;;;;;14.28;100.00;100535.31;5052672;28;20973;-71
2022/09/09 04:31:41;;;;;;;5.63;2.53;;;;;;;14.26;100.00;100540.28;5052900;28;20450;-70
2022/09/09 04:34:08;;;;;;;7.90;3.37;;;;;;;14.29;100.00;100550.50;5052918;28;20497;-70
2022/09/09 04:36:34;;;;;;;8.40;3.33;;;;;;;14.26;100.00;100549.25;5052885;28;20446;-70
2022/09/09 04:39:01;;;;;;;4.83;2.37;;;;;;;14.25;100.00;100550.38;5053172;28;20449;-70
2022/09/09 04:41:28;;;;;;;8.00;3.67;;;;;;;14.19;100.00;100567.22;5052865;28;20537;-71
2022/09/09 04:43:55;;;;;;;9.30;3.70;;;;;;;14.14;100.00;100549.94;5052761;28;20486;-72
2022/09/09 04:46:24;;;;;;;6.63;3.43;;;;;;;14.13;100.00;100561.97;5052792;28;20504;-71
2022/09/09 04:48:50;;;;;;;7.80;3.20;;;;;;;14.10;100.00;100553.63;5052845;28;20442;-71
2022/09/09 04:51:17;;;;;;;8.87;3.30;;;;;;;14.12;100.00;100565.81;5052760;28;20486;-72
2022/09/09 04:53:44;;;;;;;6.03;3.13;;;;;;;14.07;100.00;100565.16;5052479;28;20445;-72
2022/09/09 04:56:12;;;;;;;7.93;3.60;;;;;;;14.05;100.00;100561.97;5052897;28;20431;-71
2022/09/09 04:58:41;;;;;;;5.83;2.63;;;;;;;14.14;100.00;100570.94;5052517;28;20507;-71
2022/09/09 05:01:09;;;;;;;12.93;4.00;;;;;;;14.09;100.00;100571.09;5052878;28;20439;-72
2022/09/09 05:03:37;;;;;;;9.17;3.10;;;;;;;14.12;100.00;100573.16;5052578;28;20477;-70
2022/09/09 05:06:06;;;;;;;6.10;2.73;;;;;;;14.10;100.00;100580.88;5052638;28;20450;-70
2022/09/09 05:08:32;;;;;;;7.03;4.27;;;;;;;14.15;100.00;100577.97;5052861;28;20541;-68
2022/09/09 05:10:59;;;;;;;7.80;3.53;;;;;;;14.18;100.00;100573.81;5052563;28;20453;-69
2022/09/09 05:13:27;;;;;;;9.70;3.30;;;;;;;14.23;100.00;100571.69;5052567;28;20580;-69
2022/09/09 05:15:53;;;;;;;7.43;3.10;;;;;;;14.32;100.00;100577.13;5055810;28;20442;-71
2022/09/09 05:18:20;;;;;;;5.60;2.73;;;;;;;14.34;100.00;100574.84;5056015;28;20945;-75
2022/09/09 05:20:48;;;;;;;7.27;3.00;;;;;;;14.39;100.00;100572.78;5056148;28;20442;-70
2022/09/09 05:23:14;;;;;;;8.30;3.10;;;;;;;14.49;100.00;100570.84;5056032;28;20441;-69
2022/09/09 05:25:41;;;;;;;10.23;3.20;;;;;;;14.53;100.00;100571.78;5056101;28;20549;-68
2022/09/09 05:28:08;;;;;;;7.20;3.40;;;;;;;14.58;100.00;100564.22;5055907;28;20957;-69
2022/09/09 05:30:34;;;;;;;5.40;2.83;;;;;;;14.63;100.00;100569.47;5055957;28;20533;-68
2022/09/09 05:33:01;;;;;;;5.37;2.43;;;;;;;14.71;100.00;100567.84;5056011;28;20477;-68
2022/09/09 05:35:27;;;;;;;13.73;3.53;;;;;;;14.77;100.00;100566.50;5055503;28;20971;-68
2022/09/09 05:38:00;;;;;;;6.50;2.93;;;;;;;14.81;100.00;100566.66;5055804;28;20446;-69
2022/09/09 05:40:26;;;;;;;6.60;3.43;;;;;;;14.88;100.00;100567.75;5055822;28;20472;-69
2022/09/09 05:42:53;;;;;;;5.47;2.77;;;;;;;14.93;100.00;100563.22;5055808;28;20445;-68
2022/09/09 05:45:19;;;;;;;7.43;2.87;;;;;;;15.01;100.00;100565.09;5055511;28;20493;-68
2022/09/09 05:47:52;;;;;;;5.73;2.97;;;;;;;15.05;100.00;100571.47;5055695;28;20859;-69
2022/09/09 05:50:19;;;;;;;6.50;2.67;;;;;;;15.09;100.00;100565.00;5055665;28;20446;-69
2022/09/09 05:52:45;;;;;;;6.23;2.90;;;;;;;15.15;100.00;100576.56;5055510;28;20442;-69
2022/09/09 05:55:13;;;;;;;7.47;3.30;;;;;;;15.18;100.00;100583.25;5055034;28;21044;-69
2022/09/09 05:57:40;;;;;;;5.10;2.20;;;;;;;15.22;100.00;100584.19;5055249;28;20993;-68
2022/09/09 06:00:08;;;;;;;7.37;2.47;;;;;;;15.22;100.00;100576.81;5055427;28;20503;-70
2022/09/09 06:02:36;;;;;;;5.70;2.50;;;;;;;15.26;100.00;100577.75;5055377;28;20442;-70
2022/09/09 06:05:03;;;;;;;5.53;2.43;;;;;;;15.29;100.00;100581.75;5055239;28;20548;-70
2022/09/09 06:07:30;;;;;;;6.17;3.10;;;;;;;15.32;100.00;100583.81;5055350;28;20450;-69
2022/09/09 06:09:56;;;;;;;5.20;2.20;;;;;;;15.35;100.00;100585.88;5055292;28;20438;-69
2022/09/09 06:12:24;;;;;;;5.53;2.30;;;;;;;15.39;100.00;100593.06;5054869;28;21000;-68
2022/09/09 06:14:51;;;;;;;6.37;3.20;;;;;;;15.46;100.00;100592.53;5055147;28;20454;-69
2022/09/09 06:17:18;;;;;;;5.47;3.00;;;;;;;15.51;100.00;100599.72;5055138;28;20496;-69
2022/09/09 06:19:44;;;;;;;7.83;2.90;;;;;;;15.56;100.00;100603.03;5055293;28;20446;-68
2022/09/09 06:22:11;;;;;;;6.50;2.53;;;;;;;15.67;100.00;100602.66;5055068;28;20785;-69
2022/09/09 06:24:38;;;;;;;5.50;2.80;;;;;;;15.72;100.00;100600.53;5054824;28;20864;-69
2022/09/09 06:27:07;;;;;;;4.87;2.60;;;;;;;15.79;100.00;100606.25;5053985;28;20465;-70
2022/09/09 06:29:34;;;;;;;6.07;3.10;;;;;;;15.85;100.00;100609.59;5054747;28;20905;-69
2022/09/09 06:32:01;;;;;;;5.37;2.40;;;;;;;15.87;100.00;100608.09;5054715;28;20442;-70
2022/09/09 06:34:28;;;;;;;8.23;3.53;;;;;;;15.92;100.00;100606.28;5054640;28;20466;-70
2022/09/09 06:36:57;;;;;;;4.80;2.53;;;;;;;15.97;100.00;100611.53;5054719;28;20877;-69
2022/09/09 06:39:23;;;;;;;6.33;2.87;;;;;;;16.01;100.00;100618.72;5054919;28;20457;-70
2022/09/09 06:41:52;;;;;;;6.07;2.63;;;;;;;16.04;100.00;100611.81;5054594;28;20441;-70
2022/09/09 06:44:19;;;;;;;5.43;2.10;;;;;;;16.08;100.00;100620.94;5054440;28;20482;-69
2022/09/09 06:46:47;;;;;;;5.60;2.47;;;;;;;16.11;100.00;100612.03;5054555;28;20537;-69
2022/09/09 06:49:14;;;;;;;4.67;1.80;;;;;;;16.07;100.00;100625.59;5054175;28;20948;-69
2022/09/09 06:51:42;;;;;;;8.80;2.20;;;;;;;16.07;100.00;100627.50;5054364;28;20450;-71
2022/09/09 06:54:09;;;;;;;6.57;2.50;;;;;;;16.11;100.00;100623.78;5054116;28;20859;-69
2022/09/09 06:56:37;;;;;;;5.90;2.20;;;;;;;16.13;100.00;100620.72;5053984;28;20803;-69
2022/09/09 06:59:08;;;;;;;5.93;1.90;;;;;;;16.12;100.00;100611.72;5054417;28;20438;-69
2022/09/09 07:01:36;;;;;;;5.60;2.27;;;;;;;16.17;100.00;100610.69;5054166;28;20510;-69
2022/09/09 07:04:07;;;;;;;4.63;2.13;;;;;;;16.21;100.00;100614.34;5054021;28;20547;-69
2022/09/09 07:06:35;;;;;;;4.63;1.90;;;;;;;16.23;100.00;100609.34;5054473;28;20476;-69
2022/09/09 07:09:04;;;;;;;5.03;2.10;;;;;;;16.29;100.00;100608.00;5054053;28;20443;-69
2022/09/09 07:11:33;;;;;;;6.03;2.53;;;;;;;16.39;100.00;100618.50;5054399;28;20477;-70
2022/09/09 07:14:01;;;;;;;6.27;2.77;;;;;;;16.37;100.00;100612.53;5053916;28;20454;-70
2022/09/09 07:16:29;;;;;;;5.70;2.27;;;;;;;16.45;100.00;100612.78;5054026;28;20431;-70
2022/09/09 07:18:57;;;;;;;5.83;2.43;;;;;;;16.48;100.00;100609.38;5054001;28;20438;-69
2022/09/09 07:21:27;;;;;;;5.73;2.50;;;;;;;16.54;100.00;100613.50;5053886;28;20456;-69
2022/09/09 07:23:54;;;;;;;15.73;2.40;;;;;;;16.62;100.00;100615.31;5053693;28;20497;-69
2022/09/09 07:26:23;;;;;;;4.30;2.17;;;;;;;16.71;100.00;100618.75;5053821;28;20488;-70
2022/09/09 07:28:50;;;;;;;5.67;2.47;;;;;;;16.79;100.00;100620.59;5053672;28;20442;-70
2022/09/09 07:31:18;;;;;;;6.37;1.70;;;;;;;16.87;100.00;100616.97;5053718;28;20449;-70
2022/09/09 07:33:45;;;;;;;4.60;1.87;;;;;;;16.94;100.00;100616.38;5053542;28;20500;-71
2022/09/09 07:36:14;;;;;;;4.63;1.80;;;;;;;16.99;100.00;100618.88;5053615;28;20489;-70
2022/09/09 07:38:45;;;;;;;4.00;1.70;;;;;;;17.09;100.00;100626.63;5053204;28;20441;-70
2022/09/09 07:41:14;;;;;;;6.77;1.83;;;;;;;17.20;100.00;100629.69;5053608;28;20438;-70
2022/09/09 07:43:40;;;;;;;4.00;1.70;;;;;;;17.28;100.00;100631.50;5053675;28;20442;-69
2022/09/09 07:46:08;;;;;;;4.63;1.93;;;;;;;17.35;100.00;100628.16;5053386;28;20485;-70
2022/09/09 07:48:35;;;;;;;3.83;1.30;;;;;;;17.45;100.00;100644.16;5053079;28;21009;-69
2022/09/09 07:51:08;;;;;;;4.20;1.40;;;;;;;17.51;100.00;100642.75;5053333;28;20528;-69
2022/09/09 07:53:36;;;;;;;6.17;1.97;;;;;;;17.57;100.00;100638.63;5053288;28;21012;-71
2022/09/09 07:56:09;;;;;;;4.90;1.53;;;;;;;17.66;100.00;100635.72;5053398;28;20430;-68
2022/09/09 07:58:36;;;;;;;5.70;1.57;;;;;;;17.74;100.00;100634.03;5053870;28;20418;-77
2022/09/09 08:01:08;;;;;;;4.10;1.60;;;;;;;17.82;100.00;100644.84;5053503;28;20443;-76
2022/09/09 08:03:34;;;;;;;4.00;1.60;;;;;;;17.88;100.00;100643.47;5053359;28;20983;-75
2022/09/09 08:06:02;;;;;;;4.00;1.63;;;;;;;17.92;100.00;100650.97;5052941;28;20482;-70
2022/09/09 08:08:29;;;;;;;4.97;1.63;;;;;;;17.95;100.00;100644.81;5053403;28;20885;-70
2022/09/09 08:11:03;;;;;;;5.33;1.50;;;;;;;17.96;100.00;100644.44;5053135;28;20445;-70
2022/09/09 08:13:31;;;;;;;13.13;1.40;;;;;;;18.05;100.00;100641.56;5053145;28;20436;-71
2022/09/09 08:16:05;;;;;;;5.97;1.77;;;;;;;18.11;100.00;100651.94;5054059;28;20453;-79
2022/09/09 08:18:32;;;;;;;4.87;1.40;;;;;;;18.21;100.00;100653.34;5054216;28;20903;-69
2022/09/09 08:20:58;;;;;;;4.07;1.40;;;;;;;18.36;100.00;100651.78;5053088;28;20543;-72
2022/09/09 08:23:25;;;;;;;4.27;1.43;;;;;;;18.45;100.00;100652.41;5053066;28;20499;-70
2022/09/09 08:25:52;;;;;;;3.97;1.57;;;;;;;18.55;100.00;100651.91;5052874;28;20497;-70
2022/09/09 08:28:18;;;;;;;3.73;1.10;;;;;;;18.65;99.73;100656.06;5053018;28;20461;-70
2022/09/09 08:30:47;;;;;;;3.93;1.30;;;;;;;18.73;96.76;100655.13;5052993;28;20851;-71
2022/09/09 08:33:14;;;;;;;4.50;1.27;;;;;;;18.79;97.50;100656.44;5052941;28;20516;-70
2022/09/09 08:35:41;;;;;;;4.80;1.43;;;;;;;18.88;95.12;100654.31;5052535;28;20458;-71
2022/09/09 08:38:08;;;;;;;3.30;0.93;;;;;;;18.94;95.56;100643.84;5053091;28;20446;-71
2022/09/09 08:40:44;;;;;;;3.53;1.37;;;;;;;19.02;95.15;100653.06;5052605;28;20442;-70
2022/09/09 08:43:11;;;;;;;3.93;1.30;;;;;;;19.10;94.65;100652.88;5052538;28;20437;-71
2022/09/09 08:45:49;;;;;;;3.23;1.10;;;;;;;19.12;91.73;100656.06;5052656;28;20478;-71
2022/09/09 08:48:34;;;;;;;5.03;1.13;;;;;;;19.13;90.62;100651.38;5052878;28;20432;-72
2022/09/09 08:51:02;;;;;;;8.63;1.37;;;;;;;19.17;93.13;100663.22;5056181;28;20426;-73
2022/09/09 08:53:32;;;;;;;4.60;1.33;;;;;;;19.22;94.99;100665.69;5056686;28;20453;-71
2022/09/09 08:56:00;;;;;;;5.93;0.87;;;;;;;19.22;95.56;100664.91;5056645;28;20450;-74
2022/09/09 08:58:30;;;;;;;5.33;0.97;;;;;;;19.26;94.58;100658.34;5056597;28;20483;-71
2022/09/09 09:01:10;;;;;;;3.73;1.30;;;;;;;19.28;94.95;100653.28;5056701;28;20943;-73
2022/09/09 09:03:46;;;;;;;3.10;0.90;;;;;;;19.31;93.80;100668.25;5056482;28;20425;-71
2022/09/09 09:06:26;;;;;;;5.03;1.20;;;;;;;19.35;96.02;100667.19;5056637;28;20469;-71
2022/09/09 09:09:02;;;;;;;3.40;1.20;;;;;;;19.37;95.23;100662.09;5056326;28;20434;-73
2022/09/09 09:11:35;;;;;;;3.83;1.07;;;;;;;19.43;94.03;100670.84;5056446;28;20461;-72
2022/09/09 09:14:07;;;;;;;3.30;1.10;;;;;;;19.45;95.47;100673.25;5055818;28;20468;-73
2022/09/09 09:16:42;;;;;;;6.37;1.80;;;;;;;19.51;93.30;100672.59;5055826;28;20442;-71
2022/09/09 09:19:15;;;;;;;4.83;1.07;;;;;;;19.58;91.62;100677.47;5055896;28;20417;-70
2022/09/09 09:21:44;;;;;;;4.93;1.33;;;;;;;19.58;89.02;100667.28;5056208;28;20484;-71
2022/09/09 09:24:18;;;;;;;4.63;1.23;;;;;;;19.57;90.74;100678.63;5056100;28;20525;-71
2022/09/09 09:26:45;;;;;;;3.53;1.03;;;;;;;19.63;91.78;100668.97;5055893;28;20429;-70
2022/09/09 09:29:14;;;;;;;4.30;1.60;;;;;;;19.76;91.48;100675.94;5056059;28;20445;-70
2022/09/09 09:31:45;;;;;;;2.93;0.70;;;;;;;19.86;90.35;100672.59;5056057;28;20829;-71
2022/09/09 09:34:13;;;;;;;5.80;1.30;;;;;;;19.97;90.39;100672.03;5055880;28;20975;-71
2022/09/09 09:36:44;;;;;;;3.63;1.13;;;;;;;20.03;89.90;100673.31;5055843;28;20442;-71
2022/09/09 09:39:11;;;;;;;3.50;1.20;;;;;;;20.15;89.06;100679.47;5055888;28;20770;-71
2022/09/09 09:41:39;;;;;;;6.93;1.00;;;;;;;20.19;87.20;100678.72;5056050;28;20454;-71
2022/09/09 09:44:07;;;;;;;4.50;1.23;;;;;;;20.21;87.52;100677.22;5055717;28;20477;-71
2022/09/09 09:46:33;;;;;;;3.33;1.07;;;;;;;20.26;85.91;100674.16;5055637;28;20485;-71
2022/09/09 09:49:01;;;;;;;2.90;0.80;;;;;;;20.38;89.25;100671.25;5055729;28;20446;-73
2022/09/09 09:51:32;;;;;;;3.20;0.90;;;;;;;20.48;88.35;100672.63;5055374;28;20800;-71
2022/09/09 09:54:14;;;;;;;3.23;0.87;;;;;;;20.58;86.76;100677.50;5055350;28;20486;-72
2022/09/09 09:56:42;;;;;;;6.80;1.17;;;;;;;20.66;86.85;100678.44;5055516;28;20447;-71
2022/09/09 09:59:20;;;;;;;4.17;0.93;;;;;;;20.73;87.49;100664.81;5055226;28;20434;-71
2022/09/09 10:01:47;;;;;;;3.63;1.10;;;;;;;20.83;85.20;100671.66;5053860;28;20804;-72
2022/09/09 10:04:18;;;;;;;3.70;1.20;;;;;;;20.81;85.64;100672.03;5055029;28;20473;-72
2022/09/09 10:06:46;;;;;;;3.60;1.00;;;;;;;20.92;84.21;100667.47;5055388;28;20552;-71
2022/09/09 10:09:23;;;;;;;2.97;0.80;;;;;;;20.99;86.95;100677.03;5055230;28;20943;-72
2022/09/09 10:11:56;;;;;;;3.40;0.90;;;;;;;20.97;88.37;100668.31;5055402;28;20426;-72
2022/09/09 10:14:30;;;;;;;3.47;0.73;;;;;;;20.95;85.53;100671.47;5055258;28;20474;-71
2022/09/09 10:17:19;;;;;;;3.00;0.80;;;;;;;20.99;83.92;100675.06;5055533;28;20434;-71
2022/09/09 10:20:01;;;;;;;5.23;1.03;;;;;;;21.04;84.82;100668.44;5055149;28;20431;-71
2022/09/09 10:22:32;;;;;;;3.00;0.80;;;;;;;21.10;83.34;100672.47;5055051;28;20423;-72
2022/09/09 10:25:29;;;;;;;3.03;0.70;;;;;;;21.12;82.70;100665.44;5054990;28;20540;-72
2022/09/09 10:28:19;;;;;;;3.47;1.00;;;;;;;21.12;85.63;100670.16;5054991;28;20435;-72
2022/09/09 10:30:57;;;;;;;3.63;1.23;;;;;;;21.05;83.72;100679.09;5055559;28;20430;-72
2022/09/09 10:33:33;;;;;;;3.27;0.73;;;;;;;21.14;84.27;100668.59;5054937;28;20430;-72
2022/09/09 10:36:02;;;;;;;3.67;1.20;;;;;;;;;;5054880;28;20418;-73
2022/09/09 10:38:34;;;;;;;3.43;1.00;;;;;;;21.52;85.05;100666.81;5054807;28;20492;-72
2022/09/09 10:41:16;;;;;;;4.33;1.43;;;;;;;21.64;84.96;100663.81;5054713;28;20435;-72
2022/09/09 10:44:13;;;;;;;3.43;0.87;;;;;;;21.77;79.75;100669.88;5054745;28;20419;-73
2022/09/09 10:46:53;;;;;;;3.50;1.00;;;;;;;21.72;80.51;100678.47;5070800;22;20501;-72
2022/09/09 10:49:31;;;;;;;3.27;1.00;;;;;;;21.84;80.00;100672.72;5054611;28;20430;-70
2022/09/09 10:52:06;;;;;;;4.10;0.93;;;;;;;22.02;81.81;100672.94;5054933;28;20422;-74
2022/09/09 10:54:46;;;;;;;4.67;1.20;;;;;;;22.20;81.11;100675.13;5054834;28;20434;-72
2022/09/09 10:57:18;;;;;;;4.90;1.20;;;;;;;22.35;81.11;100683.16;5054778;28;20450;-72
2022/09/09 10:59:50;;;;;;;3.80;1.10;;;;;;;22.55;76.98;100677.47;5054710;28;20441;-72
2022/09/09 11:02:23;;;;;;;2.77;0.70;;;;;;;22.69;72.01;100671.28;5054623;28;20441;-74
2022/09/09 11:04:56;;;;;;;2.90;0.70;;;;;;;22.90;75.86;100674.25;5054188;28;20901;-74
2022/09/09 11:07:30;;;;;;;3.00;0.83;;;;;;;23.19;74.33;100682.72;5054441;28;21014;-73
2022/09/09 11:10:03;;;;;;;3.10;0.90;;;;;;;23.26;72.83;100680.03;5054447;28;20461;-73
2022/09/09 11:12:32;;;;;;;3.87;1.00;;;;;;;23.45;74.38;100679.75;5054212;28;20521;-70
2022/09/09 11:15:04;;;;;;;2.70;0.60;;;;;;;23.70;74.49;100681.88;5054390;28;20865;-69
2022/09/09 11:17:37;;;;;;;3.40;1.00;;;;;;;24.31;67.62;100680.91;5054207;28;20477;-69
2022/09/09 11:20:06;;;;;;;3.03;0.70;;;;;;;25.37;66.91;100681.34;5054003;28;20427;-70
2022/09/09 11:22:38;;;;;;;2.80;0.70;;;;;;;26.47;62.81;100684.88;5054308;28;20465;-69
2022/09/09 11:25:15;;;;;;;3.97;0.90;;;;;;;27.57;60.63;100681.09;5054177;28;20529;-69
2022/09/09 11:27:53;;;;;;;3.40;0.90;;;;;;;28.63;53.68;100692.03;5053972;28;20520;-70
2022/09/09 11:30:21;;;;;;;3.20;0.90;;;;;;;28.97;50.96;100695.91;5053965;28;20422;-73
2022/09/09 11:33:19;;;;;;;2.87;0.70;;;;;;;29.17;51.55;100693.94;5054219;28;20434;-69
2022/09/09 11:36:02;;;;;;;2.80;0.83;;;;;;;29.85;50.42;100693.47;5041408;28;20474;-68